Bookmark and Share
Track history (hours):
 

MSC Divina

Last reported at 2014-Apr-23 03:07 UTC. Time now 2014-Apr-23 15:44 UTC.
Position N 18°08' W 063°40'.

Length 333 m; draft 8.7 m.

Type: Ship. MMSI: 373178000.

NotesDate/timePositionNaut miles runAvg speedWind from/ knotsBaromVisibWave heightAir tempDewpointWater temp
2014-Apr-23 03:07N 18°08' W 063°40'4 7.6
2014-Apr-23 02:33N 18°07' W 063°36'8 8.1
2014-Apr-23 01:33N 18°05' W 063°28'11 8.3
2014-Apr-23 00:10N 18°02' W 063°16'5 7.1
2014-Apr-22 23:28N 18°01' W 063°11'8 3.5
2014-Apr-22 21:19N 18°01' W 063°03'0 0.0
2014-Apr-22 19:19N 18°01' W 063°03'0 0.0
2014-Apr-22 18:31N 18°01' W 063°03'0 0.0
2014-Apr-22 14:25N 18°01' W 063°03'0 0.0
2014-Apr-22 12:31N 18°01' W 063°03'5 4.8
2014-Apr-22 11:25N 18°01' W 063°08'9 8.7
2014-Apr-22 10:21N 18°04' W 063°17'1314.2
2014-Apr-22 09:28N 18°12' W 063°28'  
2014-Apr-20 03:08N 26°14' W 079°19'1221.4
2014-Apr-20 02:34N 26°07' W 079°30'2222.2
2014-Apr-20 01:34N 25°55' W 079°51'1717.4
2014-Apr-20 00:33N 25°46' W 080°07'3 2.9
2014-Apr-19 23:31N 25°47' W 080°10'0 0.0
2014-Apr-19 22:31N 25°47' W 080°10'0 0.0
2014-Apr-19 21:31N 25°47' W 080°10'0 0.0
2014-Apr-19 20:31N 25°47' W 080°10'0 0.0
2014-Apr-19 19:31N 25°47' W 080°10'0 0.0
2014-Apr-19 18:31N 25°47' W 080°10'0 0.0
2014-Apr-19 17:31N 25°47' W 080°10'0 0.0
2014-Apr-19 16:31N 25°47' W 080°10'0 0.0
2014-Apr-19 15:31N 25°47' W 080°10'0 0.0
2014-Apr-19 14:31N 25°47' W 080°10'0 0.0
2014-Apr-19 13:31N 25°47' W 080°10'0 0.0
2014-Apr-19 12:31N 25°47' W 080°10'0 0.0
2014-Apr-19 11:32N 25°47' W 080°10'1 1.0
2014-Apr-19 10:33N 25°46' W 080°09'8 7.8
2014-Apr-19 09:33N 25°47' W 080°01'1211.8
2014-Apr-19 08:33N 25°55' W 079°51'1413.5
2014-Apr-19 07:33N 26°02' W 079°38'1514.8
2014-Apr-19 06:33N 26°11' W 079°25'3215.2
2014-Apr-19 04:26N 26°12' W 078°49'24 1.1
2014-Apr-18 07:11N 26°13' W 079°15'1116.9
2014-Apr-18 06:33N 26°04' W 079°22'1817.8
2014-Apr-18 05:33N 25°47' W 079°29'2718.4
2014-Apr-18 04:04N 25°22' W 079°41'  

Dump ship's entire track history

sailing weather and tide predictions

MSC Divina — 3FFA5 — position and weather